Time;durP1;ratioP1;P1;durP2;ratioP2;P2;SDS_P1;SDS_P2;PMS_P1;PMS_P2;Temp;Humidity;BMP_temperature;BMP_pressure;BME280_temperature;BME280_humidity;BME280_pressure;Samples;Min_cycle;Max_cycle;Signal;HPM_P1;HPM_P2
2024/01/29 00:00:53;;;;;;;3.30;2.35;;;0.80;99.90;;;;;;5053338;28;20289;-70
2024/01/29 00:03:21;;;;;;;4.35;2.65;;;0.80;99.90;;;;;;5052093;28;20654;-70
2024/01/29 00:05:49;;;;;;;5.47;2.78;;;0.80;99.90;;;;;;5053290;28;20210;-70
2024/01/29 00:08:18;;;;;;;2.60;2.40;;;0.70;99.90;;;;;;5052710;28;20222;-70
2024/01/29 00:10:46;;;;;;;4.43;2.80;;;0.70;99.90;;;;;;5052895;28;20198;-69
2024/01/29 00:13:14;;;;;;;5.07;2.20;;;0.70;99.90;;;;;;5052236;28;20313;-70
2024/01/29 00:15:42;;;;;;;4.50;2.42;;;0.70;99.90;;;;;;5052738;28;20202;-70
2024/01/29 00:18:11;;;;;;;5.82;2.72;;;0.60;99.90;;;;;;5052763;28;20279;-70
2024/01/29 00:20:39;;;;;;;5.75;2.58;;;0.60;99.90;;;;;;5052472;28;20343;-70
2024/01/29 00:23:07;;;;;;;4.22;2.53;;;0.60;99.90;;;;;;5051045;28;20711;-69
2024/01/29 00:25:35;;;;;;;5.90;2.58;;;0.60;99.90;;;;;;5052228;28;20648;-69
2024/01/29 00:28:03;;;;;;;3.65;2.65;;;0.60;99.90;;;;;;5052534;28;20210;-69
2024/01/29 00:30:31;;;;;;;3.97;2.80;;;0.70;99.90;;;;;;5052251;28;20198;-69
2024/01/29 00:32:59;;;;;;;4.32;2.55;;;0.60;99.90;;;;;;5052048;28;20229;-69
2024/01/29 00:35:29;;;;;;;4.20;2.53;;;0.60;99.90;;;;;;5052546;28;20199;-69
2024/01/29 00:37:56;;;;;;;7.18;2.60;;;0.60;99.90;;;;;;5052437;28;20198;-69
2024/01/29 00:40:25;;;;;;;3.47;2.20;;;0.60;99.90;;;;;;5051965;28;20672;-69
2024/01/29 00:42:53;;;;;;;3.40;2.35;;;0.60;99.90;;;;;;5051572;28;20284;-69
2024/01/29 00:45:21;;;;;;;5.65;2.70;;;0.60;99.90;;;;;;5051991;28;20336;-69
2024/01/29 00:47:49;;;;;;;5.93;2.70;;;0.60;99.90;;;;;;5052310;28;20198;-69
2024/01/29 00:50:17;;;;;;;3.67;2.90;;;0.60;99.90;;;;;;5051873;28;20230;-69
2024/01/29 00:52:46;;;;;;;2.53;2.33;;;0.60;99.90;;;;;;5051314;28;20218;-69
2024/01/29 00:55:14;;;;;;;4.30;2.63;;;0.60;99.90;;;;;;5051634;28;20767;-69
2024/01/29 00:57:42;;;;;;;4.40;2.50;;;0.60;99.90;;;;;;5052225;28;20255;-69
2024/01/29 01:00:11;;;;;;;2.85;2.20;;;0.60;99.90;;;;;;5051725;28;20305;-68
2024/01/29 01:02:38;;;;;;;5.82;2.65;;;0.50;99.90;;;;;;5051265;28;20641;-69
2024/01/29 01:05:07;;;;;;;4.00;2.80;;;0.50;99.90;;;;;;5051391;28;20210;-69
2024/01/29 01:07:35;;;;;;;4.53;2.88;;;0.50;99.90;;;;;;5052008;28;20248;-69
2024/01/29 01:10:06;;;;;;;4.70;2.88;;;0.50;99.90;;;;;;5051451;28;20226;-69
2024/01/29 01:12:34;;;;;;;6.25;3.47;;;0.50;99.90;;;;;;5051308;28;20283;-69
2024/01/29 01:15:01;;;;;;;4.68;2.83;;;0.50;99.90;;;;;;5051689;28;20214;-69
2024/01/29 01:17:29;;;;;;;5.50;2.55;;;0.50;99.90;;;;;;5051213;28;20655;-69
2024/01/29 01:19:57;;;;;;;3.97;2.53;;;0.50;99.90;;;;;;5051793;28;20206;-69
2024/01/29 01:22:25;;;;;;;5.40;3.20;;;0.40;99.90;;;;;;5051000;28;20228;-69
2024/01/29 01:24:53;;;;;;;5.18;3.10;;;0.40;99.90;;;;;;5051656;28;20201;-69
2024/01/29 01:27:22;;;;;;;5.97;2.92;;;0.40;99.90;;;;;;5051708;28;20285;-69
2024/01/29 01:29:50;;;;;;;5.43;2.60;;;0.40;99.90;;;;;;5051157;28;20786;-69
2024/01/29 01:32:18;;;;;;;6.68;3.40;;;0.40;99.90;;;;;;5050339;28;20738;-69
2024/01/29 01:34:46;;;;;;;3.25;2.53;;;0.40;99.90;;;;;;5050844;28;20202;-69
2024/01/29 01:37:14;;;;;;;5.53;2.80;;;0.30;99.90;;;;;;5051309;28;20613;-69
2024/01/29 01:39:42;;;;;;;4.03;2.85;;;0.30;99.90;;;;;;5050987;28;20190;-69
2024/01/29 01:42:10;;;;;;;4.18;2.72;;;0.30;99.90;;;;;;5050534;28;20221;-69
2024/01/29 01:44:39;;;;;;;4.47;2.67;;;0.30;99.90;;;;;;5051432;28;20264;-69
2024/01/29 01:47:07;;;;;;;4.97;2.45;;;0.30;99.90;;;;;;5051332;28;20347;-69
2024/01/29 01:49:35;;;;;;;4.07;2.47;;;0.30;99.90;;;;;;5050762;28;20644;-69
2024/01/29 01:52:03;;;;;;;5.20;2.58;;;0.30;99.90;;;;;;5050445;28;20703;-69
2024/01/29 01:54:31;;;;;;;6.30;2.60;;;0.20;99.90;;;;;;5042949;28;20297;-69
2024/01/29 01:56:59;;;;;;;4.57;2.85;;;0.20;99.90;;;;;;5051064;28;20206;-69
2024/01/29 01:59:27;;;;;;;2.92;2.25;;;0.20;99.90;;;;;;5050962;28;20197;-69
2024/01/29 02:01:58;;;;;;;5.55;2.80;;;0.20;99.90;;;;;;5050326;28;20279;-69
2024/01/29 02:04:26;;;;;;;3.30;3.00;;;0.20;99.90;;;;;;5050897;28;20267;-69
2024/01/29 02:06:54;;;;;;;5.32;2.80;;;0.20;99.90;;;;;;5050818;28;20198;-69
2024/01/29 02:09:22;;;;;;;5.10;2.60;;;0.20;99.90;;;;;;5050602;28;20228;-69
2024/01/29 02:11:50;;;;;;;3.08;2.80;;;0.20;99.90;;;;;;5050286;28;20306;-69
2024/01/29 02:14:18;;;;;;;2.85;2.60;;;0.20;99.90;;;;;;5050619;28;20672;-69
2024/01/29 02:16:46;;;;;;;8.20;3.10;;;0.20;99.90;;;;;;5050740;28;20260;-69
2024/01/29 02:19:16;;;;;;;7.75;3.05;;;0.20;99.90;;;;;;5050639;28;20205;-69
2024/01/29 02:21:45;;;;;;;4.72;3.08;;;0.20;99.90;;;;;;5049861;28;20213;-69
2024/01/29 02:24:14;;;;;;;5.90;2.97;;;0.20;99.90;;;;;;5050603;28;20206;-69
2024/01/29 02:26:46;;;;;;;3.38;3.08;;;0.20;99.90;;;;;;5051030;28;20206;-69
2024/01/29 02:29:14;;;;;;;4.40;2.92;;;0.20;99.90;;;;;;5050491;28;20609;-69
2024/01/29 02:31:41;;;;;;;6.47;3.08;;;0.20;99.90;;;;;;5050440;28;20663;-70
2024/01/29 02:34:10;;;;;;;4.10;3.25;;;0.20;99.90;;;;;;5050553;28;20236;-69
2024/01/29 02:36:38;;;;;;;6.10;3.13;;;0.20;99.90;;;;;;5050409;28;20676;-69
2024/01/29 02:39:07;;;;;;;5.53;2.65;;;0.10;99.90;;;;;;5050649;28;20225;-69
2024/01/29 02:41:37;;;;;;;5.53;3.92;;;0.20;99.90;;;;;;5050381;28;20209;-69
2024/01/29 02:44:05;;;;;;;5.43;3.45;;;0.20;99.90;;;;;;5049986;28;20273;-69
2024/01/29 02:46:33;;;;;;;3.78;3.20;;;0.20;99.90;;;;;;5053718;28;20283;-69
2024/01/29 02:49:01;;;;;;;4.10;3.05;;;0.10;99.90;;;;;;5048335;28;20217;-69
2024/01/29 02:51:29;;;;;;;3.55;3.22;;;0.10;99.90;;;;;;5054035;28;20226;-69
2024/01/29 02:53:57;;;;;;;3.90;3.00;;;0.10;99.90;;;;;;5053910;28;20213;-69
2024/01/29 02:56:25;;;;;;;5.25;3.13;;;0.10;99.90;;;;;;5053941;28;20213;-70
2024/01/29 02:58:54;;;;;;;5.15;3.40;;;0.10;99.90;;;;;;5054223;28;20693;-69
2024/01/29 03:01:22;;;;;;;4.53;3.70;;;0.10;99.90;;;;;;5054039;28;20198;-69
2024/01/29 03:03:50;;;;;;;4.00;3.70;;;0.10;99.90;;;;;;5053438;28;20226;-69
2024/01/29 03:06:18;;;;;;;4.75;3.30;;;0.10;99.90;;;;;;5053983;28;20209;-70
2024/01/29 03:08:46;;;;;;;5.13;3.30;;;0.10;99.90;;;;;;5054104;28;20210;-69
2024/01/29 03:11:14;;;;;;;5.05;3.05;;;0.10;99.90;;;;;;5054177;28;20217;-69
2024/01/29 03:13:43;;;;;;;5.55;3.50;;;0.10;99.90;;;;;;5053145;28;20954;-69
2024/01/29 03:16:13;;;;;;;3.22;2.92;;;0.00;99.90;;;;;;5055293;28;20214;-69
2024/01/29 03:18:40;;;;;;;5.90;3.42;;;0.00;99.90;;;;;;5054068;28;20199;-69
2024/01/29 03:21:09;;;;;;;5.57;3.00;;;0.00;99.90;;;;;;5053807;28;20206;-69
2024/01/29 03:23:37;;;;;;;6.05;4.13;;;0.00;99.90;;;;;;5052944;28;20229;-69
2024/01/29 03:26:05;;;;;;;6.97;4.28;;;0.00;99.90;;;;;;5053490;28;20667;-69
2024/01/29 03:28:33;;;;;;;5.68;3.38;;;0.00;99.90;;;;;;5053830;28;20293;-69
2024/01/29 03:31:00;;;;;;;8.98;3.83;;;0.00;99.90;;;;;;5053645;28;20304;-69
2024/01/29 03:33:30;;;;;;;4.00;3.53;;;0.00;99.90;;;;;;5052981;28;20252;-69
2024/01/29 03:35:58;;;;;;;4.35;3.53;;;0.00;99.90;;;;;;5053456;28;20213;-69
2024/01/29 03:38:25;;;;;;;4.32;3.22;;;0.00;99.90;;;;;;5053300;28;20263;-69
2024/01/29 03:40:53;;;;;;;7.28;3.13;;;0.00;99.90;;;;;;5053412;28;20771;-69
2024/01/29 03:43:21;;;;;;;6.85;2.97;;;0.00;99.90;;;;;;5052912;28;20309;-69
2024/01/29 03:45:49;;;;;;;7.68;3.15;;;0.00;99.90;;;;;;5053375;28;20202;-69
2024/01/29 03:48:17;;;;;;;3.75;3.33;;;0.00;99.90;;;;;;5053408;28;20556;-69
2024/01/29 03:50:47;;;;;;;7.47;3.60;;;0.00;99.90;;;;;;5052995;28;20272;-69
2024/01/29 03:53:14;;;;;;;6.15;3.88;;;0.00;99.90;;;;;;5052555;28;20257;-69
2024/01/29 03:55:42;;;;;;;5.68;3.75;;;0.00;99.90;;;;;;5052677;28;20206;-69
2024/01/29 03:58:10;;;;;;;6.07;3.97;;;0.00;99.90;;;;;;5053357;28;20217;-69
2024/01/29 04:00:39;;;;;;;4.85;3.65;;;0.00;99.90;;;;;;5053001;28;20275;-69
2024/01/29 04:03:07;;;;;;;3.78;2.95;;;0.00;99.90;;;;;;5052505;28;20301;-69
2024/01/29 04:05:35;;;;;;;5.75;4.00;;;0.00;99.90;;;;;;5052682;28;20213;-69
2024/01/29 04:08:05;;;;;;;7.82;4.07;;;0.00;99.90;;;;;;5053218;28;20264;-69
2024/01/29 04:10:33;;;;;;;6.30;3.58;;;0.00;99.90;;;;;;5052821;28;20581;-69
2024/01/29 04:13:01;;;;;;;4.03;3.50;;;0.00;99.90;;;;;;5052229;28;20282;-69
2024/01/29 04:15:29;;;;;;;7.38;3.22;;;0.00;99.90;;;;;;5052662;28;20762;-69
2024/01/29 04:17:57;;;;;;;8.07;3.70;;;-0.10;99.90;;;;;;5053569;28;20214;-69
2024/01/29 04:20:25;;;;;;;6.57;3.65;;;-0.10;99.90;;;;;;5052400;28;20209;-69
2024/01/29 04:22:53;;;;;;;4.63;3.65;;;-0.10;99.90;;;;;;5052165;28;20311;-69
2024/01/29 04:25:23;;;;;;;4.47;3.45;;;-0.10;99.90;;;;;;5052468;28;20209;-69
2024/01/29 04:27:51;;;;;;;5.53;3.28;;;-0.10;99.90;;;;;;5052674;28;20648;-69
2024/01/29 04:30:19;;;;;;;6.68;3.47;;;-0.10;99.90;;;;;;5052319;28;20221;-69
2024/01/29 04:32:47;;;;;;;5.68;3.42;;;-0.10;99.90;;;;;;5051700;28;20222;-69
2024/01/29 04:35:15;;;;;;;4.80;3.65;;;-0.20;99.90;;;;;;5052362;28;20214;-69
2024/01/29 04:37:43;;;;;;;3.80;3.50;;;-0.20;99.90;;;;;;5052502;28;20206;-69
2024/01/29 04:40:13;;;;;;;7.57;4.00;;;-0.20;99.90;;;;;;5052300;28;20255;-70
2024/01/29 04:42:42;;;;;;;8.23;3.72;;;-0.20;99.90;;;;;;5043509;28;20221;-69
2024/01/29 04:45:10;;;;;;;6.32;4.20;;;-0.20;99.90;;;;;;5051997;28;20210;-69
2024/01/29 04:47:38;;;;;;;8.50;3.65;;;-0.20;99.90;;;;;;5052412;28;20249;-69
2024/01/29 04:50:07;;;;;;;6.72;3.95;;;-0.20;99.90;;;;;;5051875;28;20206;-69
2024/01/29 04:52:35;;;;;;;9.82;3.70;;;-0.20;99.90;;;;;;5051216;28;20699;-69
2024/01/29 04:55:03;;;;;;;5.40;3.38;;;-0.20;99.90;;;;;;5051847;28;20320;-70
2024/01/29 04:57:32;;;;;;;5.18;2.92;;;-0.20;99.90;;;;;;5051956;28;20497;-69
2024/01/29 05:00:03;;;;;;;5.57;2.90;;;-0.20;99.90;;;;;;5051789;28;20589;-69
2024/01/29 05:02:31;;;;;;;6.00;3.53;;;-0.20;99.90;;;;;;5051213;28;20228;-69
2024/01/29 05:04:59;;;;;;;4.57;3.00;;;-0.20;99.90;;;;;;5051792;28;20248;-70
2024/01/29 05:07:27;;;;;;;3.95;3.17;;;-0.30;99.90;;;;;;5051196;28;20671;-69
2024/01/29 05:09:55;;;;;;;6.30;3.22;;;-0.30;99.90;;;;;;5051329;28;20652;-69
2024/01/29 05:12:23;;;;;;;4.60;3.10;;;-0.30;99.90;;;;;;5050700;28;20612;-69
2024/01/29 05:14:51;;;;;;;7.50;3.17;;;-0.30;99.90;;;;;;5051966;28;20248;-69
2024/01/29 05:17:20;;;;;;;4.53;2.88;;;-0.30;99.90;;;;;;5051666;28;20304;-69
2024/01/29 05:19:48;;;;;;;3.67;3.10;;;-0.30;99.90;;;;;;5051598;28;20287;-69
2024/01/29 05:22:16;;;;;;;7.70;3.78;;;-0.30;99.90;;;;;;5050887;28;20232;-69
2024/01/29 05:24:44;;;;;;;3.65;2.67;;;-0.30;99.90;;;;;;5051387;28;20305;-69
2024/01/29 05:27:12;;;;;;;5.72;3.05;;;-0.30;99.90;;;;;;5051531;28;20213;-69
2024/01/29 05:29:40;;;;;;;3.70;2.92;;;-0.30;99.90;;;;;;5051346;28;20672;-69
2024/01/29 05:32:07;;;;;;;6.28;3.05;;;-0.30;99.90;;;;;;5050495;28;20613;-69
2024/01/29 05:34:36;;;;;;;4.25;3.67;;;-0.30;99.90;;;;;;5051405;28;20210;-68
2024/01/29 05:37:04;;;;;;;9.57;4.15;;;-0.40;99.90;;;;;;5051337;28;20308;-69
2024/01/29 05:39:32;;;;;;;6.55;4.30;;;-0.40;99.90;;;;;;5051148;28;20221;-69
2024/01/29 05:42:00;;;;;;;7.47;4.32;;;-0.40;99.90;;;;;;5050633;28;20550;-69
2024/01/29 05:44:28;;;;;;;9.20;4.20;;;-0.40;99.90;;;;;;5051242;28;20228;-69
2024/01/29 05:46:56;;;;;;;9.65;3.90;;;-0.40;99.90;;;;;;5051117;28;20252;-69
2024/01/29 05:49:24;;;;;;;9.15;4.90;;;-0.40;99.90;;;;;;5051062;28;20213;-69
2024/01/29 05:51:53;;;;;;;6.85;4.25;;;-0.40;99.90;;;;;;5050271;28;20618;-69
2024/01/29 05:54:21;;;;;;;10.48;4.63;;;-0.40;99.90;;;;;;5051005;28;20205;-69
2024/01/29 05:56:50;;;;;;;10.02;4.32;;;-0.50;99.90;;;;;;5050894;28;20210;-68
2024/01/29 05:59:18;;;;;;;5.45;4.13;;;-0.40;99.90;;;;;;5050999;28;20267;-69
2024/01/29 06:01:46;;;;;;;6.88;4.65;;;-0.40;99.90;;;;;;5050225;28;20348;-70
2024/01/29 06:04:14;;;;;;;5.63;3.92;;;-0.50;99.90;;;;;;5050975;28;20300;-69
2024/01/29 06:06:43;;;;;;;7.70;4.43;;;-0.40;99.90;;;;;;5050617;28;20206;-69
2024/01/29 06:09:12;;;;;;;6.95;3.97;;;-0.40;99.90;;;;;;5050974;28;20590;-69
2024/01/29 06:11:40;;;;;;;5.50;3.97;;;-0.50;99.90;;;;;;5050549;28;20229;-70
2024/01/29 06:14:08;;;;;;;7.15;3.97;;;-0.50;99.90;;;;;;5051224;28;20352;-69
2024/01/29 06:16:36;;;;;;;5.25;4.05;;;-0.50;99.90;;;;;;5050934;28;20660;-69
2024/01/29 06:19:04;;;;;;;9.32;4.80;;;-0.50;99.90;;;;;;5051356;28;20308;-69
2024/01/29 06:21:32;;;;;;;5.93;4.18;;;-0.50;99.90;;;;;;5055192;28;20593;-69
2024/01/29 06:24:00;;;;;;;8.13;4.22;;;-0.50;99.90;;;;;;5062284;22;20259;-53
2024/01/29 06:26:29;;;;;;;7.72;4.40;;;-0.50;99.90;;;;;;5055024;28;20316;-52
2024/01/29 06:28:58;;;;;;;6.95;4.15;;;-0.50;99.90;;;;;;5055154;28;20237;-53
2024/01/29 06:31:26;;;;;;;10.13;4.40;;;-0.50;99.90;;;;;;5054632;28;20202;-52
2024/01/29 06:33:54;;;;;;;7.50;4.05;;;-0.50;99.90;;;;;;5055157;28;20208;-52
2024/01/29 06:36:25;;;;;;;6.07;3.90;;;-0.50;99.90;;;;;;5078136;22;20291;-73
2024/01/29 06:38:53;;;;;;;5.60;4.47;;;-0.50;99.90;;;;;;5047930;28;20229;-75
2024/01/29 06:41:21;;;;;;;8.15;4.35;;;-0.50;99.90;;;;;;5046866;28;20213;-73
2024/01/29 06:43:50;;;;;;;6.70;4.50;;;-0.50;99.90;;;;;;5046774;28;20221;-73
2024/01/29 06:46:18;;;;;;;7.38;4.70;;;-0.50;99.90;;;;;;5054706;28;20210;-73
2024/01/29 06:48:46;;;;;;;7.00;4.18;;;-0.50;99.90;;;;;;5054718;28;20206;-75
2024/01/29 06:51:15;;;;;;;8.02;4.03;;;-0.50;99.90;;;;;;5054938;28;20209;-75
2024/01/29 06:53:43;;;;;;;7.72;4.20;;;-0.50;99.90;;;;;;5053920;28;20749;-75
2024/01/29 06:56:11;;;;;;;10.48;5.38;;;-0.50;99.90;;;;;;5054624;28;20212;-75
2024/01/29 06:58:39;;;;;;;7.53;4.90;;;-0.50;99.90;;;;;;5054543;28;20241;-75
2024/01/29 07:01:08;;;;;;;10.00;5.50;;;-0.50;99.90;;;;;;5054830;28;20292;-75
2024/01/29 07:03:36;;;;;;;5.97;5.10;;;-0.50;99.90;;;;;;5053713;28;20222;-75
2024/01/29 07:06:04;;;;;;;8.15;4.72;;;-0.50;99.90;;;;;;5054509;28;20209;-75
2024/01/29 07:08:32;;;;;;;8.93;5.20;;;-0.50;99.90;;;;;;5054583;28;20202;-73
2024/01/29 07:11:00;;;;;;;8.07;5.95;;;-0.50;99.90;;;;;;5054349;28;20254;-73
2024/01/29 07:13:28;;;;;;;11.18;6.07;;;-0.50;99.90;;;;;;5053836;28;20230;-73
2024/01/29 07:15:56;;;;;;;9.98;5.40;;;-0.50;99.90;;;;;;5054577;28;20248;-74
2024/01/29 07:18:25;;;;;;;6.70;5.63;;;-0.50;99.90;;;;;;5054273;28;20208;-74
2024/01/29 07:20:53;;;;;;;7.68;5.40;;;-0.50;99.90;;;;;;5054339;28;20252;-73
2024/01/29 07:23:22;;;;;;;13.23;6.10;;;-0.50;99.90;;;;;;5054021;28;20394;-73
2024/01/29 07:25:50;;;;;;;9.43;6.55;;;-0.50;99.90;;;;;;5054013;28;20616;-73
2024/01/29 07:28:17;;;;;;;9.45;5.18;;;-0.50;99.90;;;;;;5054179;28;20217;-73
2024/01/29 07:30:45;;;;;;;7.88;5.32;;;-0.50;99.90;;;;;;5053413;28;20206;-73
2024/01/29 07:33:13;;;;;;;10.13;5.13;;;-0.50;99.90;;;;;;5053400;28;20617;-73
2024/01/29 07:35:43;;;;;;;7.55;4.63;;;-0.50;99.90;;;;;;5053631;28;20636;-73
2024/01/29 07:38:11;;;;;;;7.72;4.63;;;-0.40;99.90;;;;;;5053959;28;20238;-73
2024/01/29 07:40:38;;;;;;;7.72;5.03;;;-0.40;99.90;;;;;;5053922;28;20626;-73
2024/01/29 07:43:06;;;;;;;6.68;4.75;;;-0.40;99.90;;;;;;5053316;28;20272;-74
2024/01/29 07:45:34;;;;;;;7.97;4.78;;;-0.30;99.90;;;;;;5053744;28;20214;-74
2024/01/29 07:48:04;;;;;;;7.38;4.82;;;-0.30;99.90;;;;;;5053858;28;20208;-74
2024/01/29 07:50:32;;;;;;;9.35;5.25;;;-0.30;99.90;;;;;;5053651;28;20202;-75
2024/01/29 07:53:02;;;;;;;9.48;5.47;;;-0.30;99.90;;;;;;5052994;28;20248;-73
2024/01/29 07:55:30;;;;;;;7.82;4.88;;;-0.20;99.90;;;;;;5053614;28;20210;-73
2024/01/29 07:57:58;;;;;;;10.60;4.82;;;-0.20;99.90;;;;;;5053808;28;20267;-73
2024/01/29 08:00:26;;;;;;;9.95;5.38;;;-0.20;99.90;;;;;;5053392;28;20214;-73
2024/01/29 08:02:54;;;;;;;8.40;4.65;;;-0.10;99.90;;;;;;5053289;28;20220;-73
2024/01/29 08:05:22;;;;;;;7.70;4.80;;;-0.10;99.90;;;;;;5053126;28;20202;-73
2024/01/29 08:07:50;;;;;;;7.20;4.95;;;0.00;99.90;;;;;;5053599;28;20209;-73
2024/01/29 08:10:20;;;;;;;10.38;5.55;;;0.00;99.90;;;;;;5053195;28;20206;-73
2024/01/29 08:12:48;;;;;;;9.32;4.85;;;0.10;99.90;;;;;;5052617;28;20229;-73
2024/01/29 08:15:16;;;;;;;69.97;21.58;;;0.20;99.90;;;;;;5053566;28;20206;-73
2024/01/29 08:17:44;;;;;;;94.28;26.52;;;0.20;99.90;;;;;;5053614;28;20206;-75
2024/01/29 08:20:12;;;;;;;184.82;48.67;;;0.30;99.90;;;;;;5053044;28;20635;-75
2024/01/29 08:22:40;;;;;;;35.08;12.65;;;0.40;99.90;;;;;;5052606;28;20222;-76
2024/01/29 08:25:08;;;;;;;13.90;7.43;;;0.40;99.90;;;;;;5053164;28;20206;-73
2024/01/29 08:27:38;;;;;;;10.85;6.68;;;0.50;99.90;;;;;;5053035;28;20697;-73
2024/01/29 08:30:07;;;;;;;11.88;5.35;;;0.60;99.90;;;;;;5052867;28;20210;-73
2024/01/29 08:32:35;;;;;;;12.70;5.30;;;0.60;99.90;;;;;;5052290;28;20234;-73
2024/01/29 08:35:03;;;;;;;9.02;4.95;;;0.70;99.90;;;;;;5052775;28;20675;-73
2024/01/29 08:37:31;;;;;;;7.05;4.72;;;0.80;99.90;;;;;;5053117;28;20263;-73
2024/01/29 08:39:58;;;;;;;7.72;4.95;;;0.80;99.90;;;;;;5053283;28;20212;-73
2024/01/29 08:42:26;;;;;;;9.85;5.25;;;0.90;99.90;;;;;;5051274;28;20216;-73
2024/01/29 08:44:56;;;;;;;8.23;4.97;;;0.90;99.90;;;;;;5052446;28;20206;-73
2024/01/29 08:47:24;;;;;;;10.88;5.30;;;1.00;99.90;;;;;;5052872;28;20206;-73
2024/01/29 08:49:52;;;;;;;6.03;4.78;;;1.10;99.90;;;;;;5052495;28;20198;-74
2024/01/29 08:52:20;;;;;;;8.98;5.55;;;1.10;99.90;;;;;;5052202;28;20206;-74
2024/01/29 08:54:49;;;;;;;8.20;5.32;;;1.20;99.90;;;;;;5052616;28;20303;-74
2024/01/29 08:57:17;;;;;;;11.32;5.47;;;1.20;99.90;;;;;;5052253;28;20205;-74
2024/01/29 08:59:44;;;;;;;7.63;5.40;;;1.30;99.90;;;;;;5052544;28;20210;-73
2024/01/29 09:02:14;;;;;;;10.48;6.05;;;1.40;99.90;;;;;;5051745;28;20344;-74
2024/01/29 09:04:42;;;;;;;8.57;5.82;;;1.40;99.90;;;;;;5052667;28;20607;-73
2024/01/29 09:07:10;;;;;;;7.40;5.70;;;1.50;99.90;;;;;;5052082;28;20695;-73
2024/01/29 09:09:38;;;;;;;9.35;5.40;;;1.60;99.90;;;;;;5052171;28;20214;-73
2024/01/29 09:12:06;;;;;;;8.10;5.80;;;1.70;99.90;;;;;;5051374;28;20214;-73
2024/01/29 09:14:34;;;;;;;7.22;5.85;;;1.80;99.90;;;;;;5052035;28;20312;-74
2024/01/29 09:17:02;;;;;;;16.35;6.97;;;2.00;99.90;;;;;;5052131;28;20301;-73
2024/01/29 09:19:31;;;;;;;8.85;6.25;;;2.10;99.90;;;;;;5052086;28;20206;-73
2024/01/29 09:21:59;;;;;;;15.02;8.38;;;2.20;99.90;;;;;;5051302;28;20593;-73
2024/01/29 09:24:27;;;;;;;15.20;8.88;;;2.30;99.90;;;;;;5051770;28;20232;-73
2024/01/29 09:26:58;;;;;;;13.60;8.32;;;2.40;99.90;;;;;;5051818;28;20210;-74
2024/01/29 09:29:25;;;;;;;16.23;10.75;;;2.60;99.90;;;;;;5052039;28;20259;-73
2024/01/29 09:31:53;;;;;;;17.77;10.50;;;2.70;99.90;;;;;;5051275;28;20255;-74
2024/01/29 09:34:24;;;;;;;18.23;10.20;;;2.90;99.90;;;;;;5051729;28;20225;-74
2024/01/29 09:36:54;;;;;;;15.13;10.07;;;3.00;99.90;;;;;;5051533;28;20202;-73
2024/01/29 09:39:24;;;;;;;15.00;9.13;;;3.00;99.90;;;;;;5051708;28;20671;-74
2024/01/29 09:41:53;;;;;;;12.90;8.48;;;3.10;99.90;;;;;;5051126;28;20202;-73
2024/01/29 09:44:20;;;;;;;13.70;7.93;;;3.20;99.90;;;;;;5051673;28;20222;-74
2024/01/29 09:46:48;;;;;;;14.63;10.25;;;3.30;99.90;;;;;;5051513;28;20252;-73
2024/01/29 09:49:16;;;;;;;17.00;10.63;;;3.40;99.90;;;;;;5051489;28;20298;-74
2024/01/29 09:51:44;;;;;;;18.45;11.02;;;3.50;99.90;;;;;;5051606;28;20213;-74
2024/01/29 09:54:13;;;;;;;13.27;10.73;;;3.70;99.90;;;;;;5050966;28;20683;-74
2024/01/29 09:56:41;;;;;;;17.98;11.50;;;3.90;99.90;;;;;;5051343;28;20671;-74
2024/01/29 09:59:10;;;;;;;17.33;11.07;;;4.10;99.90;;;;;;5051437;28;20233;-74
2024/01/29 10:01:38;;;;;;;19.10;11.35;;;4.30;99.90;;;;;;5051120;28;20267;-74
2024/01/29 10:04:06;;;;;;;16.42;11.07;;;4.40;99.90;;;;;;5050540;28;20222;-74
2024/01/29 10:06:34;;;;;;;14.15;10.70;;;4.60;99.90;;;;;;5050987;28;20205;-74
2024/01/29 10:09:04;;;;;;;19.48;11.70;;;4.80;99.90;;;;;;5051478;28;20202;-74
2024/01/29 10:11:33;;;;;;;15.30;10.73;;;5.10;99.90;;;;;;5051282;28;20205;-74
2024/01/29 10:14:02;;;;;;;15.23;10.73;;;5.30;99.90;;;;;;5050482;28;20221;-74
2024/01/29 10:16:30;;;;;;;17.42;10.95;;;5.50;99.90;;;;;;5051004;28;20615;-74
2024/01/29 10:18:58;;;;;;;15.02;11.05;;;5.70;99.90;;;;;;5051060;28;20692;-74
2024/01/29 10:21:26;;;;;;;15.35;10.90;;;5.90;99.90;;;;;;5051269;28;20205;-74
2024/01/29 10:23:55;;;;;;;15.88;10.27;;;6.20;99.90;;;;;;5050650;28;20301;-74
2024/01/29 10:26:23;;;;;;;16.27;10.65;;;6.50;99.90;;;;;;5051719;28;20214;-74
2024/01/29 10:29:02;;;;;;;12.95;10.18;;;6.50;99.90;;;;;;5051019;28;20205;-74
2024/01/29 10:31:30;;;;;;;16.25;10.70;;;6.70;99.90;;;;;;5051289;28;20278;-74
2024/01/29 10:33:58;;;;;;;17.25;10.57;;;6.50;99.90;;;;;;5050469;28;20350;-74
2024/01/29 10:36:26;;;;;;;15.90;10.65;;;6.60;99.90;;;;;;5050941;28;20241;-76
2024/01/29 10:38:59;;;;;;;15.20;10.93;;;6.60;99.90;;;;;;5051106;28;20210;-75
2024/01/29 10:41:27;;;;;;;15.88;10.85;;;6.70;99.90;;;;;;5050806;28;20586;-76
2024/01/29 10:43:55;;;;;;;15.63;11.25;;;6.70;99.90;;;;;;5050454;28;20271;-76
2024/01/29 10:46:25;;;;;;;19.30;10.90;;;6.80;99.90;;;;;;5050873;28;20208;-75
2024/01/29 10:48:53;;;;;;;15.30;10.63;;;6.80;99.90;;;;;;5051337;28;20210;-75
2024/01/29 10:51:21;;;;;;;17.02;10.20;;;6.70;99.90;;;;;;5050893;28;20210;-76
2024/01/29 10:53:49;;;;;;;18.63;11.07;;;6.70;99.90;;;;;;5050036;28;20807;-75
2024/01/29 10:56:18;;;;;;;14.27;10.63;;;6.70;99.90;;;;;;5050966;28;20241;-76
2024/01/29 10:58:46;;;;;;;15.52;11.00;;;6.80;99.90;;;;;;5050940;28;20654;-76
2024/01/29 11:01:13;;;;;;;19.30;11.15;;;6.80;99.90;;;;;;5050940;28;20293;-76
2024/01/29 11:03:43;;;;;;;16.95;10.90;;;6.90;99.90;;;;;;5050141;28;20339;-76
2024/01/29 11:06:14;;;;;;;16.17;11.63;;;7.20;99.90;;;;;;5051562;28;20300;-76
2024/01/29 11:08:43;;;;;;;14.25;10.77;;;7.30;99.90;;;;;;5054469;28;20214;-76
2024/01/29 11:11:11;;;;;;;16.30;11.90;;;7.40;99.90;;;;;;5054302;28;20745;-76
2024/01/29 11:13:39;;;;;;;14.70;11.10;;;7.70;99.90;;;;;;5053531;28;20225;-76
2024/01/29 11:16:07;;;;;;;15.82;11.40;;;8.00;99.90;;;;;;5054332;28;20269;-76
2024/01/29 11:18:35;;;;;;;17.15;10.63;;;8.20;99.90;;;;;;5054077;28;20209;-76
2024/01/29 11:21:09;;;;;;;12.85;10.52;;;8.40;99.90;;;;;;5054142;28;20339;-76
2024/01/29 11:23:42;;;;;;;14.50;10.52;;;8.70;99.90;;;;;;5053531;28;20728;-76
2024/01/29 11:26:12;;;;;;;15.88;11.02;;;9.00;99.90;;;;;;5054351;28;20206;-76
2024/01/29 11:28:39;;;;;;;14.68;10.40;;;9.40;99.90;;;;;;5054133;28;20702;-74
2024/01/29 11:31:11;;;;;;;14.73;11.10;;;9.60;99.90;;;;;;5054214;28;20344;-74
2024/01/29 11:33:40;;;;;;;12.75;10.60;;;9.80;99.90;;;;;;5053124;28;20276;-74
2024/01/29 11:36:12;;;;;;;14.70;11.15;;;9.90;99.90;;;;;;5053805;28;20316;-74
2024/01/29 11:38:40;;;;;;;16.77;10.70;;;9.70;99.90;;;;;;5054105;28;20285;-74
2024/01/29 11:41:08;;;;;;;18.10;10.70;;;9.50;99.90;;;;;;5053908;28;20202;-74
2024/01/29 11:43:36;;;;;;;15.10;10.60;;;9.30;99.90;;;;;;5053262;28;20311;-74
2024/01/29 11:46:04;;;;;;;15.18;11.05;;;9.00;99.90;;;;;;5053712;28;20202;-74
2024/01/29 11:48:32;;;;;;;15.35;10.98;;;8.70;99.90;;;;;;5053993;28;20293;-74
2024/01/29 11:51:00;;;;;;;16.52;11.43;;;8.50;99.90;;;;;;5053815;28;20679;-74
2024/01/29 11:53:29;;;;;;;18.40;12.63;;;8.40;99.90;;;;;;5053241;28;20576;-74
2024/01/29 11:55:57;;;;;;;16.45;11.70;;;8.30;99.90;;;;;;5053260;28;20650;-74
2024/01/29 11:58:26;;;;;;;14.50;11.10;;;8.30;99.90;;;;;;5053577;28;20252;-74
2024/01/29 12:00:54;;;;;;;15.98;10.80;;;8.30;99.90;;;;;;5053375;28;20206;-74
2024/01/29 12:03:23;;;;;;;16.60;11.63;;;8.30;99.90;;;;;;5052951;28;20624;-74
2024/01/29 12:05:52;;;;;;;17.65;11.07;;;8.30;99.90;;;;;;5053388;28;20198;-74
2024/01/29 12:08:20;;;;;;;15.45;11.50;;;8.20;99.90;;;;;;5053562;28;20209;-74
2024/01/29 12:10:50;;;;;;;14.88;11.60;;;8.20;99.90;;;;;;5053346;28;20244;-74
2024/01/29 12:13:18;;;;;;;12.57;10.38;;;8.10;99.90;;;;;;5052634;28;20299;-74
2024/01/29 12:15:47;;;;;;;17.70;11.65;;;8.10;99.90;;;;;;5053229;28;20252;-74
2024/01/29 12:18:16;;;;;;;15.23;11.55;;;8.00;99.90;;;;;;5053343;28;20198;-74
2024/01/29 12:20:47;;;;;;;14.70;11.38;;;8.00;99.90;;;;;;5053022;28;20248;-74
2024/01/29 12:23:16;;;;;;;16.95;11.27;;;8.00;99.90;;;;;;5067088;22;20217;-55
2024/01/29 12:25:44;;;;;;;15.32;11.70;;;8.00;99.90;;;;;;5052641;28;20260;-55
2024/01/29 12:28:15;;;;;;;15.57;11.32;;;8.10;99.90;;;;;;5053174;28;20198;-55
2024/01/29 12:30:44;;;;;;;15.10;11.52;;;8.10;99.90;;;;;;5052638;28;20213;-55
2024/01/29 12:33:17;;;;;;;14.15;11.13;;;8.20;99.90;;;;;;5037241;28;20221;-54
2024/01/29 12:35:45;;;;;;;16.17;11.45;;;8.40;99.90;;;;;;5052498;28;20656;-56
2024/01/29 12:38:14;;;;;;;14.32;11.02;;;8.50;99.90;;;;;;5076040;22;20581;-61
2024/01/29 12:40:41;;;;;;;15.40;10.48;;;8.60;99.90;;;;;;5052921;28;20687;-62
2024/01/29 12:43:14;;;;;;;11.85;10.38;;;8.80;99.90;;;;;;5052749;28;20198;-61
2024/01/29 12:45:44;;;;;;;14.43;11.43;;;8.90;99.90;;;;;;5052591;28;20571;-61
2024/01/29 12:48:12;;;;;;;18.65;11.18;;;8.90;99.90;;;;;;5052745;28;20649;-61
2024/01/29 12:50:40;;;;;;;15.60;10.25;;;9.00;99.90;;;;;;5052415;28;20626;-61
2024/01/29 12:53:09;;;;;;;15.20;11.32;;;8.90;99.90;;;;;;5052646;28;20202;-62